Time;durP1;ratioP1;P1;durP2;ratioP2;P2;SDS_P1;SDS_P2;PMS_P1;PMS_P2;Temp;Humidity;BMP_temperature;BMP_pressure;BME280_temperature;BME280_humidity;BME280_pressure;Samples;Min_cycle;Max_cycle;Signal;HPM_P1;HPM_P2
2021/11/29 00:01:40;;;;;;;;;;;;;;;5.93;100.00;97763.46;1763756;80;20193;-82
2021/11/29 00:04:09;;;;;;;;;;;;;;;5.92;100.00;97759.23;1757845;80;20153;-83
2021/11/29 00:06:35;;;;;;;;;;;;;;;5.93;100.00;97760.84;1759395;80;21924;-83
2021/11/29 00:09:02;;;;;;;;;;;;;;;5.90;100.00;97762.04;1760418;80;20196;-83
2021/11/29 00:11:28;;;;;;;;;;;;;;;5.83;100.00;97768.20;1758713;80;20167;-83
2021/11/29 00:13:59;;;;;;;;;;;;;;;6.00;100.00;97776.68;1751114;80;20260;-84
2021/11/29 00:16:24;;;;;;;;;;;;;;;5.97;100.00;97777.85;1767023;79;20153;-83
2021/11/29 00:18:52;;;;;;;;;;;;;;;6.03;100.00;97771.04;1729565;80;21173;-84
2021/11/29 00:21:19;;;;;;;;;;;;;;;6.07;100.00;97771.80;1746003;80;20519;-84
2021/11/29 00:23:47;;;;;;;;;;;;;;;6.07;100.00;97778.34;1758962;80;20115;-85
2021/11/29 00:26:15;;;;;;;;;;;;;;;5.94;100.00;97775.57;1758741;80;20187;-84
2021/11/29 00:28:42;;;;;;;;;;;;;;;5.88;100.00;97767.14;1767172;79;20115;-85
2021/11/29 00:31:10;;;;;;;;;;;;;;;5.85;100.00;97768.82;1759578;80;21136;-85
2021/11/29 00:33:36;;;;;;;;;;;;;;;5.86;100.00;97774.38;1758919;80;20130;-85
2021/11/29 00:36:02;;;;;;;;;;;;;;;5.95;100.00;97777.20;1764096;80;20191;-85
2021/11/29 00:38:28;;;;;;;;;;;;;;;6.03;100.00;97766.63;1760711;80;20153;-85
2021/11/29 00:40:54;;;;;;;;;;;;;;;6.11;100.00;97762.57;1764925;80;20107;-85
2021/11/29 00:43:21;;;;;;;;;;;;;;;6.08;100.00;97761.63;1762397;79;21885;-85
2021/11/29 00:45:49;;;;;;;;;;;;;;;6.09;100.00;97758.03;1761075;80;20185;-85
2021/11/29 00:48:14;;;;;;;;;;;;;;;6.08;100.00;97745.91;1767870;80;20195;-85
2021/11/29 00:50:40;;;;;;;;;;;;;;;6.06;100.00;97745.30;1761551;79;20153;-84
2021/11/29 00:53:10;;;;;;;;;;;;;;;6.00;100.00;97735.56;1763370;80;20447;-86
2021/11/29 00:55:37;;;;;;;;;;;;;;;6.03;100.00;97744.36;1759642;80;21247;-85
2021/11/29 00:58:05;;;;;;;;;;;;;;;6.06;100.00;97739.23;1763357;80;20156;-83
2021/11/29 01:00:30;;;;;;;;;;;;;;;5.98;100.00;97737.57;1765859;80;20116;-84
2021/11/29 01:02:58;;;;;;;;;;;;;;;5.98;100.00;97732.33;1732264;80;20124;-84
2021/11/29 01:05:23;;;;;;;;;;;;;;;5.99;100.00;97733.93;1765362;79;20156;-86
2021/11/29 01:07:49;;;;;;;;;;;;;;;5.91;100.00;97736.65;1756746;80;22120;-86
2021/11/29 01:10:16;;;;;;;;;;;;;;;6.02;100.00;97743.23;1760050;80;20187;-86
2021/11/29 01:12:45;;;;;;;;;;;;;;;6.10;100.00;97739.98;1768066;80;20120;-87
2021/11/29 01:15:14;;;;;;;;;;;;;;;6.18;100.00;97744.80;1764788;79;20196;-86
2021/11/29 01:17:40;;;;;;;;;;;;;;;6.24;100.00;97744.05;1760643;80;20182;-84
2021/11/29 01:20:07;;;;;;;;;;;;;;;6.40;100.00;97734.63;1752284;80;21046;-84
2021/11/29 01:22:33;;;;;;;;;;;;;;;6.43;100.00;97735.55;1764527;79;20174;-84
2021/11/29 01:25:00;;;;;;;;;;;;;;;6.46;100.00;97739.59;1763757;80;20182;-84
2021/11/29 01:27:25;;;;;;;;;;;;;;;6.50;100.00;97735.60;1761282;80;20129;-84
2021/11/29 01:29:51;;;;;;;;;;;;;;;6.44;100.00;97734.53;1761248;80;20516;-83
2021/11/29 01:32:18;;;;;;;;;;;;;;;6.40;100.00;97722.83;1762099;80;21091;-83
2021/11/29 01:34:44;;;;;;;;;;;;;;;6.41;100.00;97715.77;1762815;80;20175;-84
2021/11/29 01:37:09;;;;;;;;;;;;;;;6.24;100.00;97713.91;1765740;80;20100;-84
2021/11/29 01:39:37;;;;;;;;;;;;;;;6.18;100.00;97713.35;1761190;80;20206;-83
2021/11/29 01:42:09;;;;;;;;;;;;;;;5.99;100.00;97702.50;1764434;80;20204;-84
2021/11/29 01:44:34;;;;;;;;;;;;;;;5.89;100.00;97695.44;1762266;80;20996;-83
2021/11/29 01:47:00;;;;;;;;;;;;;;;5.87;100.00;97690.86;1766275;80;20181;-83
2021/11/29 01:49:25;;;;;;;;;;;;;;;5.78;100.00;97695.91;1767338;80;20532;-84
2021/11/29 01:51:51;;;;;;;;;;;;;;;5.70;100.00;97704.21;1765819;79;20145;-84
2021/11/29 01:54:20;;;;;;;;;;;;;;;5.56;100.00;97703.25;1761993;80;20933;-83
2021/11/29 01:56:48;;;;;;;;;;;;;;;5.50;100.00;97702.69;1764582;80;20910;-84
2021/11/29 01:59:14;;;;;;;;;;;;;;;5.48;100.00;97707.27;1758100;80;20142;-84
2021/11/29 02:01:40;;;;;;;;;;;;;;;5.42;100.00;97716.36;1763891;79;20151;-84
2021/11/29 02:04:08;;;;;;;;;;;;;;;5.27;100.00;97715.09;1758441;80;20437;-82
2021/11/29 02:06:35;;;;;;;;;;;;;;;5.07;100.00;97734.45;1764941;79;20504;-83
2021/11/29 02:09:03;;;;;;;;;;;;;;;5.08;100.00;97721.20;1757383;80;21014;-84
2021/11/29 02:11:30;;;;;;;;;;;;;;;5.09;100.00;97728.53;1763121;79;20342;-83
2021/11/29 02:14:00;;;;;;;;;;;;;;;4.95;100.00;97732.27;1759511;79;20127;-82
2021/11/29 02:16:28;;;;;;;;;;;;;;;4.73;100.00;97715.67;1759925;80;20237;-82
2021/11/29 02:18:56;;;;;;;;;;;;;;;4.57;100.00;97698.34;1762123;80;20986;-84
2021/11/29 02:21:30;;;;;;;;;;;;;;;4.58;100.00;97701.26;1767778;80;20450;-83
2021/11/29 02:24:01;;;;;;;;;;;;;;;4.29;100.00;97700.73;1753947;80;20597;-83
2021/11/29 02:26:28;;;;;;;;;;;;;;;4.16;100.00;97701.31;1760958;80;20134;-83
2021/11/29 02:28:59;;;;;;;;;;;;;;;4.28;100.00;97705.63;1757484;79;20201;-83
2021/11/29 02:31:28;;;;;;;;;;;;;;;4.28;100.00;97712.97;1743338;80;20110;-83
2021/11/29 02:33:54;;;;;;;;;;;;;;;4.31;100.00;97710.00;1760772;80;21928;-83
2021/11/29 02:36:20;;;;;;;;;;;;;;;4.33;100.00;97714.25;1745795;80;20112;-82
2021/11/29 02:38:47;;;;;;;;;;;;;;;4.28;100.00;97712.97;1763404;80;20234;-83
2021/11/29 02:41:15;;;;;;;;;;;;;;;4.24;100.00;97704.35;1756495;79;20609;-84
2021/11/29 02:43:43;;;;;;;;;;;;;;;4.17;100.00;97700.33;1763876;79;20598;-84
2021/11/29 02:46:09;;;;;;;;;;;;;;;4.28;100.00;97702.52;1767015;79;21254;-84
2021/11/29 02:48:50;;;;;;;;;;;;;;;4.16;100.00;97709.14;1761690;80;20209;-84
2021/11/29 02:51:36;;;;;;;;;;;;;;;4.07;100.00;97702.36;1759650;80;20127;-83
2021/11/29 02:54:11;;;;;;;;;;;;;;;4.08;100.00;97696.96;1768135;80;20170;-83
2021/11/29 02:56:41;;;;;;;;;;;;;;;3.99;100.00;97705.04;1765028;80;20910;-83
2021/11/29 02:59:08;;;;;;;;;;;;;;;4.01;100.00;97702.59;1756925;79;21139;-83
2021/11/29 03:01:35;;;;;;;;;;;;;;;3.59;100.00;97720.30;1759120;80;20161;-84
2021/11/29 03:04:01;;;;;;;;;;;;;;;3.52;100.00;97722.47;1764565;79;20191;-84
2021/11/29 03:06:27;;;;;;;;;;;;;;;3.51;100.00;97711.23;1763721;80;20175;-85
2021/11/29 03:08:52;;;;;;;;;;;;;;;3.34;100.00;97712.27;1763460;80;20288;-84
2021/11/29 03:11:18;;;;;;;;;;;;;;;3.22;100.00;97728.30;1763753;80;21087;-84
2021/11/29 03:13:44;;;;;;;;;;;;;;;3.30;100.00;97717.52;1723362;80;20185;-84
2021/11/29 03:16:13;;;;;;;;;;;;;;;3.18;100.00;97710.05;1760248;80;20213;-84
2021/11/29 03:18:43;;;;;;;;;;;;;;;3.07;100.00;97719.55;1763693;79;20106;-84
2021/11/29 03:21:10;;;;;;;;;;;;;;;2.92;100.00;97723.84;1764181;80;20209;-84
2021/11/29 03:23:38;;;;;;;;;;;;;;;2.85;100.00;97727.11;1763345;80;21902;-84
2021/11/29 03:26:08;;;;;;;;;;;;;;;2.91;100.00;97723.53;1760708;80;20180;-83
2021/11/29 03:28:38;;;;;;;;;;;;;;;2.73;100.00;97715.41;1760871;80;20204;-84
2021/11/29 03:31:05;;;;;;;;;;;;;;;2.56;100.00;97729.45;1735116;80;21079;-84
2021/11/29 03:33:34;;;;;;;;;;;;;;;2.23;100.00;97706.04;1754792;79;20495;-83
2021/11/29 03:36:00;;;;;;;;;;;;;;;2.40;100.00;97714.16;1743863;79;20926;-84
2021/11/29 03:38:26;;;;;;;;;;;;;;;2.27;100.00;97730.76;1767358;80;20208;-86
2021/11/29 03:40:54;;;;;;;;;;;;;;;2.37;100.00;97714.48;1763157;80;20120;-85
2021/11/29 03:43:24;;;;;;;;;;;;;;;2.08;100.00;97718.42;1751196;80;20125;-85
2021/11/29 03:45:54;;;;;;;;;;;;;;;2.21;100.00;97743.16;1758414;80;20451;-84
2021/11/29 03:48:19;;;;;;;;;;;;;;;2.35;100.00;97728.17;1763018;79;21137;-84
2021/11/29 03:50:45;;;;;;;;;;;;;;;2.23;100.00;97728.17;1772120;80;20717;-84
2021/11/29 03:53:11;;;;;;;;;;;;;;;1.97;100.00;97733.86;1766570;79;20179;-83
2021/11/29 03:55:36;;;;;;;;;;;;;;;1.87;100.00;97720.67;1773139;80;20475;-84
2021/11/29 03:58:02;;;;;;;;;;;;;;;1.90;100.00;97730.77;1767548;80;20120;-85
2021/11/29 04:00:28;;;;;;;;;;;;;;;1.93;100.00;97730.44;1740606;80;21822;-85
2021/11/29 04:02:56;;;;;;;;;;;;;;;1.85;100.00;97725.20;1762203;80;20364;-86
2021/11/29 04:05:24;;;;;;;;;;;;;;;1.84;100.00;97734.81;1763367;80;20538;-85
2021/11/29 04:07:50;;;;;;;;;;;;;;;2.02;100.00;97722.14;1737762;80;20373;-85
2021/11/29 04:10:21;;;;;;;;;;;;;;;1.97;100.00;97729.13;1772785;79;20261;-86
2021/11/29 04:12:51;;;;;;;;;;;;;;;2.10;100.00;97729.47;1772369;80;20108;-85
2021/11/29 04:15:20;;;;;;;;;;;;;;;2.25;100.00;97719.70;1769633;80;20139;-85
2021/11/29 04:17:45;;;;;;;;;;;;;;;2.19;100.00;97720.35;1772293;80;20152;-84
2021/11/29 04:20:15;;;;;;;;;;;;;;;2.17;100.00;97732.73;1771093;80;20452;-84
2021/11/29 04:22:44;;;;;;;;;;;;;;;2.22;100.00;97724.77;1772094;80;20092;-84
2021/11/29 04:25:10;;;;;;;;;;;;;;;2.14;100.00;97721.67;1770687;80;20149;-84
2021/11/29 04:27:39;;;;;;;;;;;;;;;2.03;100.00;97723.27;1765912;79;20141;-84
2021/11/29 04:30:11;;;;;;;;;;;;;;;2.13;100.00;97723.14;1775575;80;20116;-84
2021/11/29 04:32:35;;;;;;;;;;;;;;;1.91;100.00;97718.05;1771955;79;20117;-84
2021/11/29 04:35:00;;;;;;;;;;;;;;;1.94;100.00;97719.03;1768651;80;20162;-84
2021/11/29 04:37:26;;;;;;;;;;;;;;;1.95;100.00;97716.77;1766543;79;22284;-84
2021/11/29 04:39:52;;;;;;;;;;;;;;;1.86;100.00;97738.55;1762465;80;20171;-84
2021/11/29 04:42:17;;;;;;;;;;;;;;;1.73;100.00;97715.11;1765272;79;20159;-84
2021/11/29 04:44:43;;;;;;;;;;;;;;;1.67;100.00;97717.05;1764869;79;20616;-84
2021/11/29 04:47:12;;;;;;;;;;;;;;;1.66;100.00;97706.31;1764280;79;20132;-84
2021/11/29 04:49:38;;;;;;;;;;;;;;;1.78;100.00;97702.42;1763664;80;22059;-84
2021/11/29 04:52:06;;;;;;;;;;;;;;;1.78;100.00;97701.13;1760883;80;20112;-83
2021/11/29 04:54:32;;;;;;;;;;;;;;;1.69;100.00;97720.30;1761750;80;20320;-84
2021/11/29 04:56:59;;;;;;;;;;;;;;;1.83;100.00;97720.66;1757896;80;20136;-85
2021/11/29 04:59:25;;;;;;;;;;;;;;;1.73;100.00;97752.03;1729662;80;20203;-84
2021/11/29 05:01:50;;;;;;;;;;;;;;;1.77;100.00;97724.23;1763403;79;22025;-85
2021/11/29 05:04:16;;;;;;;;;;;;;;;1.63;100.00;97727.94;1761350;80;20155;-85
2021/11/29 05:06:43;;;;;;;;;;;;;;;1.76;100.00;97726.50;1763916;79;20115;-85
2021/11/29 05:09:11;;;;;;;;;;;;;;;1.72;100.00;97725.19;1758900;80;20236;-85
2021/11/29 05:11:36;;;;;;;;;;;;;;;1.69;100.00;97732.00;1758534;79;20506;-85
2021/11/29 05:14:02;;;;;;;;;;;;;;;1.68;100.00;97747.77;1763932;80;20992;-85
2021/11/29 05:16:30;;;;;;;;;;;;;;;1.66;100.00;97748.42;1761182;79;20174;-84
2021/11/29 05:18:58;;;;;;;;;;;;;;;1.69;100.00;97746.81;1761558;80;20928;-84
2021/11/29 05:21:25;;;;;;;;;;;;;;;1.54;100.00;97747.89;1765205;79;20230;-85
2021/11/29 05:23:53;;;;;;;;;;;;;;;1.65;100.00;97752.83;1765446;79;20526;-84
2021/11/29 05:26:20;;;;;;;;;;;;;;;1.70;100.00;97765.36;1757333;80;20635;-84
2021/11/29 05:28:47;;;;;;;;;;;;;;;1.70;100.00;97767.96;1767711;80;20202;-85
2021/11/29 05:31:15;;;;;;;;;;;;;;;1.77;100.00;97780.18;1766662;80;20661;-84
2021/11/29 05:33:40;;;;;;;;;;;;;;;1.74;100.00;97786.16;1762908;80;20630;-84
2021/11/29 05:36:06;;;;;;;;;;;;;;;1.65;100.00;97789.25;1761251;79;20218;-84
2021/11/29 05:38:32;;;;;;;;;;;;;;;1.67;100.00;97780.78;1766465;79;22122;-84
2021/11/29 05:41:00;;;;;;;;;;;;;;;1.66;100.00;97780.45;1766287;79;20161;-85
2021/11/29 05:43:27;;;;;;;;;;;;;;;1.77;100.00;97783.25;1767024;80;20125;-84
2021/11/29 05:45:53;;;;;;;;;;;;;;;1.74;100.00;97779.20;1770831;80;20519;-82
2021/11/29 05:48:24;;;;;;;;;;;;;;;1.72;100.00;97781.12;1762143;80;20171;-84
2021/11/29 05:50:49;;;;;;;;;;;;;;;1.81;100.00;97777.26;1763406;80;21135;-84
2021/11/29 05:53:17;;;;;;;;;;;;;;;1.84;100.00;97784.75;1752827;80;20543;-83
2021/11/29 05:55:45;;;;;;;;;;;;;;;1.79;100.00;97788.63;1754681;80;21074;-83
2021/11/29 05:58:11;;;;;;;;;;;;;;;1.87;100.00;97785.73;1739106;80;20584;-89
2021/11/29 06:00:46;;;;;;;;;;;;;;;1.97;100.00;97779.88;1753799;80;20211;-83
2021/11/29 06:03:12;;;;;;;;;;;;;;;1.87;100.00;97777.92;1757294;80;21183;-84
2021/11/29 06:05:43;;;;;;;;;;;;;;;1.71;100.00;97780.81;1733052;80;20124;-81
2021/11/29 06:08:09;;;;;;;;;;;;;;;1.67;100.00;97779.98;1765018;80;20140;-83
2021/11/29 06:10:36;;;;;;;;;;;;;;;1.70;100.00;97788.77;1719358;79;20181;-82
2021/11/29 06:13:04;;;;;;;;;;;;;;;1.54;100.00;97786.91;1740090;80;20167;-83
2021/11/29 06:15:31;;;;;;;;;;;;;;;1.56;100.00;97816.20;1769139;80;21093;-82
2021/11/29 06:18:02;;;;;;;;;;;;;;;1.57;100.00;97791.80;1755536;80;20136;-83
2021/11/29 06:20:31;;;;;;;;;;;;;;;1.60;100.00;97809.70;1763359;80;20539;-85
2021/11/29 06:22:59;;;;;;;;;;;;;;;1.58;100.00;97809.84;1769889;80;20251;-82
2021/11/29 06:25:27;;;;;;;;;;;;;;;1.51;100.00;97824.94;1756492;80;20247;-84
2021/11/29 06:27:59;;;;;;;;;;;;;;;1.49;100.00;97825.12;1759787;80;21106;-84
2021/11/29 06:30:24;;;;;;;;;;;;;;;1.58;100.00;97823.34;1757107;80;20832;-84
2021/11/29 06:32:53;;;;;;;;;;;;;;;1.50;100.00;97816.82;1756334;80;20183;-85
2021/11/29 06:35:20;;;;;;;;;;;;;;;1.45;100.00;97826.39;1752280;80;20296;-84
2021/11/29 06:37:46;;;;;;;;;;;;;;;1.54;100.00;97824.62;1762174;80;20175;-83
2021/11/29 06:40:13;;;;;;;;;;;;;;;1.54;100.00;97825.92;1765244;80;20907;-83
2021/11/29 06:42:38;;;;;;;;;;;;;;;1.49;100.00;97828.19;1762122;80;20254;-86
2021/11/29 06:45:06;;;;;;;;;;;;;;;1.48;100.00;97820.08;1757989;80;20149;-80
2021/11/29 06:47:32;;;;;;;;;;;;;;;1.61;100.00;97817.84;1760886;80;20168;-81
2021/11/29 06:49:58;;;;;;;;;;;;;;;1.50;100.00;97830.63;1763273;80;20252;-79
2021/11/29 06:52:23;;;;;;;;;;;;;;;1.43;100.00;97822.65;1765534;80;22101;-79
2021/11/29 06:54:50;;;;;;;;;;;;;;;1.41;100.00;97817.27;1762694;79;20132;-82
2021/11/29 06:57:19;;;;;;;;;;;;;;;1.45;100.00;97822.98;1765724;80;21062;-82
2021/11/29 06:59:46;;;;;;;;;;;;;;;1.50;100.00;97815.52;1762024;80;20106;-82
2021/11/29 07:02:16;;;;;;;;;;;;;;;1.43;100.00;97835.65;1751510;79;20144;-81
2021/11/29 07:04:45;;;;;;;;;;;;;;;1.47;100.00;97817.13;1760899;80;22127;-84
2021/11/29 07:07:11;;;;;;;;;;;;;;;1.50;100.00;97835.84;1765467;80;20169;-82
2021/11/29 07:09:36;;;;;;;;;;;;;;;1.60;100.00;97839.61;1761319;80;20230;-83
2021/11/29 07:12:02;;;;;;;;;;;;;;;1.71;100.00;97843.25;1757408;80;20098;-84
2021/11/29 07:14:31;;;;;;;;;;;;;;;1.60;100.00;97852.61;1758824;80;20222;-84
2021/11/29 07:16:56;;;;;;;;;;;;;;;1.64;100.00;97853.14;1760632;80;20144;-83
2021/11/29 07:19:22;;;;;;;;;;;;;;;1.66;100.00;97845.48;1750727;80;20153;-84
2021/11/29 07:21:50;;;;;;;;;;;;;;;1.59;100.00;97855.71;1756091;80;20393;-83
2021/11/29 07:24:15;;;;;;;;;;;;;;;1.73;100.00;97857.41;1759776;80;21086;-84
2021/11/29 07:26:45;;;;;;;;;;;;;;;1.64;100.00;97866.95;1754896;80;20127;-86
2021/11/29 07:29:12;;;;;;;;;;;;;;;1.55;100.00;97863.48;1758196;80;21137;-83
2021/11/29 07:31:39;;;;;;;;;;;;;;;1.59;100.00;97867.91;1755520;80;20444;-83
2021/11/29 07:34:05;;;;;;;;;;;;;;;1.52;100.00;97874.69;1753431;80;20444;-83
2021/11/29 07:36:33;;;;;;;;;;;;;;;1.60;100.00;97868.22;1757853;80;20161;-84
2021/11/29 07:38:59;;;;;;;;;;;;;;;1.70;100.00;97866.33;1761693;80;20162;-82
2021/11/29 07:41:26;;;;;;;;;;;;;;;1.60;100.00;97895.53;1757881;80;21153;-82
2021/11/29 07:43:56;;;;;;;;;;;;;;;1.43;100.00;97900.66;1772076;80;20508;-85
2021/11/29 07:46:21;;;;;;;;;;;;;;;1.59;100.00;97870.52;1734770;82;20193;-83
2021/11/29 07:48:49;;;;;;;;;;;;;;;1.55;100.00;97900.39;1741474;81;21183;-83
2021/11/29 07:51:16;;;;;;;;;;;;;;;1.54;100.00;97892.25;1744583;80;20213;-83
2021/11/29 07:53:43;;;;;;;;;;;;;;;1.53;100.00;97884.14;1736914;81;21942;-85
2021/11/29 07:56:11;;;;;;;;;;;;;;;1.53;100.00;97861.53;1746778;81;20176;-84
2021/11/29 07:58:37;;;;;;;;;;;;;;;1.51;100.00;97858.75;1744719;81;20179;-83
2021/11/29 08:01:04;;;;;;;;;;;;;;;1.49;100.00;97873.70;1722692;81;20343;-83
2021/11/29 08:03:32;;;;;;;;;;;;;;;1.50;100.00;97865.74;1745412;81;20175;-83
2021/11/29 08:05:58;;;;;;;;;;;;;;;1.53;100.00;97863.33;1744914;81;21139;-86
2021/11/29 08:08:26;;;;;;;;;;;;;;;1.56;100.00;97856.02;1748674;80;20247;-83
2021/11/29 08:10:54;;;;;;;;;;;;;;;1.47;100.00;97869.95;1748529;80;21158;-87
2021/11/29 08:13:22;;;;;;;;;;;;;;;1.36;100.00;97852.83;1723268;81;20221;-84
2021/11/29 08:15:48;;;;;;;;;;;;;;;1.50;100.00;97872.25;1747510;81;20188;-87
2021/11/29 08:18:19;;;;;;;;;;;;;;;1.55;100.00;97886.09;1750612;81;20463;-84
2021/11/29 08:20:46;;;;;;;;;;;;;;;1.49;100.00;97877.60;1745623;80;20168;-83
2021/11/29 08:23:13;;;;;;;;;;;;;;;1.57;100.00;97888.04;1722002;81;20149;-85
2021/11/29 08:25:40;;;;;;;;;;;;;;;1.44;100.00;97885.86;1748147;80;20655;-84
2021/11/29 08:28:08;;;;;;;;;;;;;;;1.68;100.00;97872.18;1744893;80;20202;-84
2021/11/29 08:30:35;;;;;;;;;;;;;;;1.63;100.00;97869.21;1748834;81;21038;-85
2021/11/29 08:33:05;;;;;;;;;;;;;;;1.40;100.00;97872.37;1749083;81;20484;-86
2021/11/29 08:35:32;;;;;;;;;;;;;;;1.41;100.00;97871.41;1709943;81;20094;-84
2021/11/29 08:37:58;;;;;;;;;;;;;;;1.37;100.00;97879.17;1743956;81;20777;-83
2021/11/29 08:40:30;;;;;;;;;;;;;;;1.39;100.00;97868.13;1751730;81;20238;-85
2021/11/29 08:42:58;;;;;;;;;;;;;;;1.36;100.00;97884.03;1743992;80;21310;-86
2021/11/29 08:45:25;;;;;;;;;;;;;;;1.48;100.00;97868.19;1749415;81;20378;-84
2021/11/29 08:47:53;;;;;;;;;;;;;;;1.45;100.00;97868.00;1749758;80;20146;-86
2021/11/29 08:50:22;;;;;;;;;;;;;;;1.37;100.00;97877.06;1751175;80;20134;-84
2021/11/29 08:52:49;;;;;;;;;;;;;;;1.40;100.00;97878.06;1751024;80;20126;-83
2021/11/29 08:55:18;;;;;;;;;;;;;;;1.41;100.00;97871.41;1749350;81;20997;-82
2021/11/29 08:57:44;;;;;;;;;;;;;;;1.58;100.00;97861.07;1750284;81;20148;-86
2021/11/29 09:00:13;;;;;;;;;;;;;;;1.66;100.00;97857.69;1706065;81;20134;-86
2021/11/29 09:02:41;;;;;;;;;;;;;;;1.65;100.00;97860.78;1745004;80;20509;-83
2021/11/29 09:05:09;;;;;;;;;;;;;;;1.66;100.00;97892.31;1746455;81;20237;-83
2021/11/29 09:07:36;;;;;;;;;;;;;;;1.77;100.00;97896.43;1749053;81;20174;-87
2021/11/29 09:10:05;;;;;;;;;;;;;;;1.71;100.00;97895.28;1744452;81;20121;-87
2021/11/29 09:12:31;;;;;;;;;;;;;;;1.67;100.00;97890.55;1746944;81;20176;-88
2021/11/29 09:14:57;;;;;;;;;;;;;;;1.82;100.00;97912.87;1748635;81;20207;-88
2021/11/29 09:17:25;;;;;;;;;;;;;;;1.52;100.00;97907.20;1738936;80;20191;-90
2021/11/29 09:19:51;;;;;;;;;;;;;;;1.57;100.00;97885.44;1750030;80;21145;-86
2021/11/29 09:22:19;;;;;;;;;;;;;;;1.75;100.00;97887.98;1745767;81;20455;-87
2021/11/29 09:24:48;;;;;;;;;;;;;;;1.77;100.00;97891.23;1744080;81;20190;-86
2021/11/29 09:27:13;;;;;;;;;;;;;;;1.65;100.00;97906.31;1748547;81;20312;-86
2021/11/29 09:29:40;;;;;;;;;;;;;;;1.66;100.00;97908.42;1744099;81;20159;-85
2021/11/29 09:32:12;;;;;;;;;;;;;;;1.61;100.00;97890.17;1747318;81;21056;-85
2021/11/29 09:34:38;;;;;;;;;;;;;;;1.56;100.00;97889.84;1746640;81;20170;-86
2021/11/29 09:37:04;;;;;;;;;;;;;;;1.73;100.00;97880.33;1750908;81;20917;-84
2021/11/29 09:39:30;;;;;;;;;;;;;;;1.49;100.00;97896.64;1748700;80;20609;-86
2021/11/29 09:41:56;;;;;;;;;;;;;;;1.52;100.00;97886.39;1741729;81;20152;-84
2021/11/29 09:44:25;;;;;;;;;;;;;;;1.53;100.00;97892.75;1749075;81;21113;-84
2021/11/29 09:46:53;;;;;;;;;;;;;;;1.46;100.00;97884.41;1746731;81;20885;-86
2021/11/29 09:49:20;;;;;;;;;;;;;;;1.38;100.00;97897.72;1739038;81;20189;-87
2021/11/29 09:51:45;;;;;;;;;;;;;;;1.45;100.00;97901.01;1743461;81;20153;-84
2021/11/29 09:54:11;;;;;;;;;;;;;;;1.33;100.00;97898.64;1743335;81;20139;-81
2021/11/29 09:56:37;;;;;;;;;;;;;;;1.35;100.00;97919.29;1747076;81;21694;-81
2021/11/29 09:59:04;;;;;;;;;;;;;;;1.56;100.00;97889.03;1748783;81;20142;-86
2021/11/29 10:01:29;;;;;;;;;;;;;;;1.55;100.00;97892.09;1735486;81;20136;-80
2021/11/29 10:03:55;;;;;;;;;;;;;;;1.52;100.00;97885.09;1750245;81;20126;-81
2021/11/29 10:06:22;;;;;;;;;;;;;;;1.45;100.00;97877.59;1732765;81;20185;-86
2021/11/29 10:08:51;;;;;;;;;;;;;;;1.50;100.00;97880.05;1748063;80;21360;-83
2021/11/29 10:11:17;;;;;;;;;;;;;;;1.49;100.00;97891.91;1750935;80;20146;-83
2021/11/29 10:13:55;;;;;;;;;;;;;;;1.58;100.00;97880.58;1745835;79;20248;-83
2021/11/29 10:16:43;;;;;;;;;;;;;;;1.65;100.00;97889.41;1755021;81;20170;-82
2021/11/29 10:19:13;;;;;;;;;;;;;;;1.61;100.00;97876.36;1755710;81;20174;-83
2021/11/29 10:21:41;;;;;;;;;;;;;;;1.59;100.00;97884.33;1746335;81;20122;-83
2021/11/29 10:24:12;;;;;;;;;;;;;;;1.65;100.00;97895.91;1740412;81;20722;-84
2021/11/29 10:26:41;;;;;;;;;;;;;;;1.54;100.00;97875.34;1731109;81;20817;-84
2021/11/29 10:29:13;;;;;;;;;;;;;;;1.58;100.00;97879.28;1725056;81;20136;-84
2021/11/29 10:31:47;;;;;;;;;;;;;;;1.66;100.00;97892.31;1745150;81;36920;-83
2021/11/29 10:34:22;;;;;;;;;;;;;;;1.66;100.00;97880.61;1745590;81;21925;-84
2021/11/29 10:37:01;;;;;;;;;;;;;;;1.64;100.00;97886.46;1714485;81;20137;-84
2021/11/29 10:39:33;;;;;;;;;;;;;;;1.74;100.00;97904.08;1748312;81;20139;-85
2021/11/29 10:42:02;;;;;;;;;;;;;;;1.71;100.00;97892.69;1752314;81;20196;-85
2021/11/29 10:44:29;;;;;;;;;;;;;;;1.79;100.00;97891.91;1750665;81;20204;-88
2021/11/29 10:46:59;;;;;;;;;;;;;;;1.75;100.00;97903.09;1753094;81;21072;-87
2021/11/29 10:49:27;;;;;;;;;;;;;;;1.63;100.00;97891.32;1766259;80;20131;-86
2021/11/29 10:51:57;;;;;;;;;;;;;;;2.04;100.00;97894.61;1760404;80;20215;-88
2021/11/29 10:54:25;;;;;;;;;;;;;;;2.05;100.00;97891.02;1761342;80;20191;-84
2021/11/29 10:56:55;;;;;;;;;;;;;;;1.97;100.00;97889.20;1760908;80;20499;-85
2021/11/29 10:59:21;;;;;;;;;;;;;;;1.99;100.00;97895.08;1745951;80;20193;-84
2021/11/29 11:01:51;;;;;;;;;;;;;;;1.94;100.00;97884.30;1731979;80;20986;-84
2021/11/29 11:04:31;;;;;;;;;;;;;;;2.05;100.00;97872.79;1766291;80;20168;-85
2021/11/29 11:06:58;;;;;;;;;;;;;;;2.17;100.00;97870.72;1766776;80;20161;-88
2021/11/29 11:09:33;;;;;;;;;;;;;;;2.18;100.00;97861.95;1760201;80;21109;-84
2021/11/29 11:12:14;;;;;;;;;;;;;;;2.19;100.00;97866.16;1761107;80;21009;-85
2021/11/29 11:14:42;;;;;;;;;;;;;;;2.03;100.00;97869.05;1763389;80;20108;-86
2021/11/29 11:17:10;;;;;;;;;;;;;;;2.06;100.00;97868.73;1762075;80;20217;-85
2021/11/29 11:19:40;;;;;;;;;;;;;;;2.11;100.00;97854.77;1763736;80;20435;-86
2021/11/29 11:22:16;;;;;;;;;;;;;;;2.04;100.00;97857.67;1747107;80;20120;-87
2021/11/29 11:24:50;;;;;;;;;;;;;;;2.15;100.00;97853.45;1755382;80;21151;-85
2021/11/29 11:27:19;;;;;;;;;;;;;;;2.00;100.00;97853.74;1755918;80;20189;-84
2021/11/29 11:29:57;;;;;;;;;;;;;;;2.12;100.00;97853.78;1763627;80;20514;-83
2021/11/29 11:32:31;;;;;;;;;;;;;;;2.04;100.00;97860.77;1763509;80;20967;-84
2021/11/29 11:35:05;;;;;;;;;;;;;;;2.16;100.00;97856.89;1761961;80;20186;-87
2021/11/29 11:37:36;;;;;;;;;;;;;;;2.23;100.00;97868.28;1765033;80;21888;-82
2021/11/29 11:40:04;;;;;;;;;;;;;;;2.13;100.00;97874.94;1753864;80;20834;-83
2021/11/29 11:42:32;;;;;;;;;;;;;;;2.19;100.00;97868.77;1758233;80;20217;-82
2021/11/29 11:44:58;;;;;;;;;;;;;;;2.13;100.00;97870.23;1758247;80;20241;-84
2021/11/29 11:47:25;;;;;;;;;;;;;;;2.18;100.00;97876.27;1764109;80;21216;-85
2021/11/29 11:49:54;;;;;;;;;;;;;;;2.23;100.00;97876.59;1726316;80;21833;-82
2021/11/29 11:52:22;;;;;;;;;;;;;;;2.17;100.00;97878.53;1761418;80;20244;-83
2021/11/29 11:54:50;;;;;;;;;;;;;;;2.11;100.00;97904.70;1763536;80;20249;-85
2021/11/29 11:57:19;;;;;;;;;;;;;;;2.28;100.00;97879.53;1762077;80;20533;-84
2021/11/29 12:00:14;;;;;;;;;;;;;;;2.21;100.00;97903.29;1765761;80;20161;-85
2021/11/29 12:02:49;;;;;;;;;;;;;;;2.21;100.00;97867.64;1760978;80;20173;-84
2021/11/29 12:05:24;;;;;;;;;;;;;;;2.14;100.00;97888.30;1763699;80;20207;-84
2021/11/29 12:07:52;;;;;;;;;;;;;;;2.09;100.00;97878.83;1763225;80;20607;-84
2021/11/29 12:10:39;;;;;;;;;;;;;;;2.15;100.00;97894.31;1761686;80;20516;-85
2021/11/29 12:13:15;;;;;;;;;;;;;;;2.19;100.00;97871.37;1763031;80;20476;-87
2021/11/29 12:15:46;;;;;;;;;;;;;;;2.06;100.00;97895.26;1748839;80;20170;-82
2021/11/29 12:18:36;;;;;;;;;;;;;;;2.09;100.00;97885.34;1735986;80;20217;-86
2021/11/29 12:21:16;;;;;;;;;;;;;;;2.21;100.00;97869.44;1763930;80;20174;-84
2021/11/29 12:23:52;;;;;;;;;;;;;;;2.12;100.00;97875.91;1760190;80;20194;-87
2021/11/29 12:26:43;;;;;;;;;;;;;;;2.17;100.00;97876.73;1763500;80;20197;-86
2021/11/29 12:29:26;;;;;;;;;;;;;;;2.19;100.00;97862.25;1762221;80;20927;-85
2021/11/29 12:32:09;;;;;;;;;;;;;;;2.14;100.00;97863.56;1756445;80;20120;-86
2021/11/29 12:34:52;;;;;;;;;;;;;;;2.13;100.00;97854.61;1757902;80;20199;-86
2021/11/29 12:37:23;;;;;;;;;;;;;;;2.25;100.00;97888.96;1728700;80;20166;-88
2021/11/29 12:40:07;;;;;;;;;;;;;;;2.18;100.00;97864.55;1748647;79;20594;-82
2021/11/29 12:42:36;;;;;;;;;;;;;;;2.20;100.00;97873.81;1758751;80;21887;-83
2021/11/29 12:45:11;;;;;;;;;;;;;;;2.07;100.00;97886.48;1753153;80;20193;-86
2021/11/29 12:47:50;;;;;;;;;;;;;;;2.22;100.00;97858.03;1757955;80;20131;-83
2021/11/29 12:50:41;;;;;;;;;;;;;;;2.33;100.00;97862.92;1752415;80;20447;-84
2021/11/29 12:53:22;;;;;;;;;;;;;;;2.29;100.00;97866.84;1737653;80;20184;-87
2021/11/29 12:56:07;;;;;;;;;;;;;;;2.37;100.00;97872.06;1759241;80;21146;-82